Terminal Aerodrome Forecast
Issued by NWS Sterling, VA

Current Version | Previous Version | Text Only | Print | Product List | Glossary Off
Versions: 1 2 3 4 5 6 7 8 9 10 11 12 13 14 15 16 17 18 19 20 21 22 23 24 25 26

000
FTUS41 KLWX 261459 AAA
TAFIAD
TAF AMD
KIAD 261459Z 2615/2718 20008KT P6SM SCT050 BKN100
     FM262100 19008G16KT P6SM VCTS BKN050CB BKN100
     FM270100 19008KT P6SM SCT050 BKN100
     FM271600 20008KT 6SM -SHRA BKN050 BKN100=

USA.gov is the U.S. government's official web portal to all federal, state and local government web resources and services.